CheckWX is a tool to help pilots better visualize weather data.  It is not intended as a substitute for an official pre-flight weather briefing.

09:54:55 UTC

KMDD METAR
Midland Airpark
Midland, Texas, USA
Current

20 mins ago

KMDD 240935Z AUTO 18009G17KT 10SM 25/21 A2990 RMK AO2 T02500210
Observed
May-24 @ 09:35 UTC
Wind
  • 180° at 9 KTS
  • Gusting to 17 KTS
Visibility
10 SM
Temperature
25°C / 77°F
Dewpoint
21°C / 70°F
Humidity
79%
Altimeter
29.9" Hg
Pressure
1012.52 hPa
Previous

40 mins ago

KMDD 240915Z AUTO 19009G14KT 10SM 25/21 A2989 RMK AO2 T02480211
Observed
May-24 @ 09:15 UTC
Wind
  • 190° at 9 KTS
  • Gusting to 14 KTS
Visibility
10 SM
Temperature
25°C / 77°F
Dewpoint
21°C / 70°F
Humidity
79%
Altimeter
29.89" Hg
Pressure
1012.22 hPa
Previous

60 mins ago

KMDD 240855Z AUTO 18011G15KT 10SM 25/21 A2989 RMK AO2 T02480211
Observed
May-24 @ 08:55 UTC
Wind
  • 180° at 11 KTS
  • Gusting to 15 KTS
Visibility
10 SM
Temperature
25°C / 77°F
Dewpoint
21°C / 70°F
Humidity
79%
Altimeter
29.89" Hg
Pressure
1012.22 hPa